sensor_id;sensor_type;location;lat;lon;timestamp;temperature;humidity
24164;DHT22;12319;49.204;8.116;2023-09-30T00:01:01;19.50;83.80
24164;DHT22;12319;49.204;8.116;2023-09-30T00:03:27;19.40;83.90
24164;DHT22;12319;49.204;8.116;2023-09-30T00:05:53;19.40;84.00
24164;DHT22;12319;49.204;8.116;2023-09-30T00:08:19;19.30;84.10
24164;DHT22;12319;49.204;8.116;2023-09-30T00:10:45;19.30;84.30
24164;DHT22;12319;49.204;8.116;2023-09-30T00:13:11;19.30;84.40
24164;DHT22;12319;49.204;8.116;2023-09-30T00:15:36;19.20;84.50
24164;DHT22;12319;49.204;8.116;2023-09-30T00:18:02;19.10;84.50
24164;DHT22;12319;49.204;8.116;2023-09-30T00:20:28;19.10;84.80
24164;DHT22;12319;49.204;8.116;2023-09-30T00:22:54;19.10;84.90
24164;DHT22;12319;49.204;8.116;2023-09-30T00:25:19;19.00;85.10
24164;DHT22;12319;49.204;8.116;2023-09-30T00:27:49;18.90;85.10
24164;DHT22;12319;49.204;8.116;2023-09-30T00:30:15;18.90;85.20
24164;DHT22;12319;49.204;8.116;2023-09-30T00:32:40;18.90;85.40
24164;DHT22;12319;49.204;8.116;2023-09-30T00:35:07;18.90;85.70
24164;DHT22;12319;49.204;8.116;2023-09-30T00:37:38;18.80;86.00
24164;DHT22;12319;49.204;8.116;2023-09-30T00:40:04;18.80;86.20
24164;DHT22;12319;49.204;8.116;2023-09-30T00:42:30;18.70;85.90
24164;DHT22;12319;49.204;8.116;2023-09-30T00:44:56;18.70;85.90
24164;DHT22;12319;49.204;8.116;2023-09-30T00:47:22;18.80;86.00
24164;DHT22;12319;49.204;8.116;2023-09-30T00:49:50;18.80;85.80
24164;DHT22;12319;49.204;8.116;2023-09-30T00:52:16;18.70;85.70
24164;DHT22;12319;49.204;8.116;2023-09-30T00:54:42;18.80;85.70
24164;DHT22;12319;49.204;8.116;2023-09-30T00:57:09;18.80;85.60
24164;DHT22;12319;49.204;8.116;2023-09-30T00:59:36;18.80;85.60
24164;DHT22;12319;49.204;8.116;2023-09-30T01:02:03;18.80;85.50
24164;DHT22;12319;49.204;8.116;2023-09-30T01:04:30;18.80;85.60
24164;DHT22;12319;49.204;8.116;2023-09-30T01:06:56;18.80;85.70
24164;DHT22;12319;49.204;8.116;2023-09-30T01:09:23;18.70;85.70
24164;DHT22;12319;49.204;8.116;2023-09-30T01:11:49;18.70;85.70
24164;DHT22;12319;49.204;8.116;2023-09-30T01:14:25;18.70;85.60
24164;DHT22;12319;49.204;8.116;2023-09-30T01:16:51;18.80;86.00
24164;DHT22;12319;49.204;8.116;2023-09-30T01:19:16;18.80;85.80
24164;DHT22;12319;49.204;8.116;2023-09-30T01:21:42;18.80;85.70
24164;DHT22;12319;49.204;8.116;2023-09-30T01:24:14;18.70;85.60
24164;DHT22;12319;49.204;8.116;2023-09-30T01:26:39;18.80;85.60
24164;DHT22;12319;49.204;8.116;2023-09-30T01:29:05;18.80;85.60
24164;DHT22;12319;49.204;8.116;2023-09-30T01:31:30;18.80;85.50
24164;DHT22;12319;49.204;8.116;2023-09-30T01:33:56;18.80;85.50
24164;DHT22;12319;49.204;8.116;2023-09-30T01:36:22;18.80;85.50
24164;DHT22;12319;49.204;8.116;2023-09-30T01:38:47;18.80;85.50
24164;DHT22;12319;49.204;8.116;2023-09-30T01:41:13;18.80;85.50
24164;DHT22;12319;49.204;8.116;2023-09-30T01:43:38;18.80;85.60
24164;DHT22;12319;49.204;8.116;2023-09-30T01:46:04;18.80;86.30
24164;DHT22;12319;49.204;8.116;2023-09-30T01:48:31;18.80;85.80
24164;DHT22;12319;49.204;8.116;2023-09-30T01:50:57;18.90;85.90
24164;DHT22;12319;49.204;8.116;2023-09-30T01:53:23;18.80;85.90
24164;DHT22;12319;49.204;8.116;2023-09-30T01:55:48;18.80;85.90
24164;DHT22;12319;49.204;8.116;2023-09-30T01:58:14;18.80;85.90
24164;DHT22;12319;49.204;8.116;2023-09-30T02:00:39;18.80;85.80
24164;DHT22;12319;49.204;8.116;2023-09-30T02:03:05;18.80;85.80
24164;DHT22;12319;49.204;8.116;2023-09-30T02:05:30;18.70;85.70
24164;DHT22;12319;49.204;8.116;2023-09-30T02:07:56;18.70;85.70
24164;DHT22;12319;49.204;8.116;2023-09-30T02:10:22;18.70;85.80
24164;DHT22;12319;49.204;8.116;2023-09-30T02:12:47;18.60;85.90
24164;DHT22;12319;49.204;8.116;2023-09-30T02:15:14;18.60;86.10
24164;DHT22;12319;49.204;8.116;2023-09-30T02:17:39;18.60;86.10
24164;DHT22;12319;49.204;8.116;2023-09-30T02:20:06;18.60;86.20
24164;DHT22;12319;49.204;8.116;2023-09-30T02:22:38;18.60;86.20
24164;DHT22;12319;49.204;8.116;2023-09-30T02:25:05;18.50;86.20
24164;DHT22;12319;49.204;8.116;2023-09-30T02:27:32;18.50;86.40
24164;DHT22;12319;49.204;8.116;2023-09-30T02:29:58;18.60;86.70
24164;DHT22;12319;49.204;8.116;2023-09-30T02:32:23;18.50;86.80
24164;DHT22;12319;49.204;8.116;2023-09-30T02:34:49;18.40;86.90
24164;DHT22;12319;49.204;8.116;2023-09-30T02:37:16;18.40;86.90
24164;DHT22;12319;49.204;8.116;2023-09-30T02:39:43;18.40;87.00
24164;DHT22;12319;49.204;8.116;2023-09-30T02:42:10;18.40;87.20
24164;DHT22;12319;49.204;8.116;2023-09-30T02:44:36;18.40;87.40
24164;DHT22;12319;49.204;8.116;2023-09-30T02:47:01;18.50;87.60
24164;DHT22;12319;49.204;8.116;2023-09-30T02:49:27;18.30;87.50
24164;DHT22;12319;49.204;8.116;2023-09-30T02:51:53;18.30;87.50
24164;DHT22;12319;49.204;8.116;2023-09-30T02:54:18;18.30;87.70
24164;DHT22;12319;49.204;8.116;2023-09-30T02:56:44;18.20;87.60
24164;DHT22;12319;49.204;8.116;2023-09-30T02:59:11;18.30;88.60
24164;DHT22;12319;49.204;8.116;2023-09-30T03:01:36;18.20;88.30
24164;DHT22;12319;49.204;8.116;2023-09-30T03:04:02;18.20;88.80
24164;DHT22;12319;49.204;8.116;2023-09-30T03:06:33;18.20;88.60
24164;DHT22;12319;49.204;8.116;2023-09-30T03:08:58;18.20;88.60
24164;DHT22;12319;49.204;8.116;2023-09-30T03:11:24;18.20;88.60
24164;DHT22;12319;49.204;8.116;2023-09-30T03:13:50;18.20;88.70
24164;DHT22;12319;49.204;8.116;2023-09-30T03:16:16;18.20;88.80
24164;DHT22;12319;49.204;8.116;2023-09-30T03:18:41;18.20;88.80
24164;DHT22;12319;49.204;8.116;2023-09-30T03:21:14;18.20;89.50
24164;DHT22;12319;49.204;8.116;2023-09-30T03:23:39;18.20;88.90
24164;DHT22;12319;49.204;8.116;2023-09-30T03:26:05;18.20;88.80
24164;DHT22;12319;49.204;8.116;2023-09-30T03:28:38;18.20;88.90
24164;DHT22;12319;49.204;8.116;2023-09-30T03:31:04;18.20;89.00
24164;DHT22;12319;49.204;8.116;2023-09-30T03:33:33;18.30;89.20
24164;DHT22;12319;49.204;8.116;2023-09-30T03:35:59;18.30;89.20
24164;DHT22;12319;49.204;8.116;2023-09-30T03:38:26;18.30;89.20
24164;DHT22;12319;49.204;8.116;2023-09-30T03:40:51;18.20;89.80
24164;DHT22;12319;49.204;8.116;2023-09-30T03:43:23;18.30;89.30
24164;DHT22;12319;49.204;8.116;2023-09-30T03:45:48;18.30;89.30
24164;DHT22;12319;49.204;8.116;2023-09-30T03:48:14;18.30;89.10
24164;DHT22;12319;49.204;8.116;2023-09-30T03:50:39;18.30;89.30
24164;DHT22;12319;49.204;8.116;2023-09-30T03:53:05;18.30;89.40
24164;DHT22;12319;49.204;8.116;2023-09-30T03:55:34;18.30;89.50
24164;DHT22;12319;49.204;8.116;2023-09-30T03:58:00;18.20;89.40
24164;DHT22;12319;49.204;8.116;2023-09-30T04:00:26;18.20;89.40
24164;DHT22;12319;49.204;8.116;2023-09-30T04:02:54;18.20;89.40
24164;DHT22;12319;49.204;8.116;2023-09-30T04:05:24;18.20;89.40
24164;DHT22;12319;49.204;8.116;2023-09-30T04:07:55;18.10;89.40
24164;DHT22;12319;49.204;8.116;2023-09-30T04:10:20;18.10;89.50
24164;DHT22;12319;49.204;8.116;2023-09-30T04:12:48;18.00;89.40
24164;DHT22;12319;49.204;8.116;2023-09-30T04:15:13;18.00;89.60
24164;DHT22;12319;49.204;8.116;2023-09-30T04:17:39;17.90;89.60
24164;DHT22;12319;49.204;8.116;2023-09-30T04:20:08;17.80;89.80
24164;DHT22;12319;49.204;8.116;2023-09-30T04:22:36;17.80;90.10
24164;DHT22;12319;49.204;8.116;2023-09-30T04:25:03;17.70;90.10
24164;DHT22;12319;49.204;8.116;2023-09-30T04:27:33;17.70;90.20
24164;DHT22;12319;49.204;8.116;2023-09-30T04:29:59;17.60;90.30
24164;DHT22;12319;49.204;8.116;2023-09-30T04:32:25;17.60;90.40
24164;DHT22;12319;49.204;8.116;2023-09-30T04:34:52;17.50;90.50
24164;DHT22;12319;49.204;8.116;2023-09-30T04:37:18;17.50;90.50
24164;DHT22;12319;49.204;8.116;2023-09-30T04:39:44;17.50;90.60
24164;DHT22;12319;49.204;8.116;2023-09-30T04:42:10;17.30;90.60
24164;DHT22;12319;49.204;8.116;2023-09-30T04:44:37;17.30;90.70
24164;DHT22;12319;49.204;8.116;2023-09-30T04:47:04;17.30;90.80
24164;DHT22;12319;49.204;8.116;2023-09-30T04:49:29;17.20;90.90
24164;DHT22;12319;49.204;8.116;2023-09-30T04:51:56;17.20;91.00
24164;DHT22;12319;49.204;8.116;2023-09-30T04:54:22;17.20;91.00
24164;DHT22;12319;49.204;8.116;2023-09-30T04:56:47;17.10;91.00
24164;DHT22;12319;49.204;8.116;2023-09-30T04:59:13;17.10;91.20
24164;DHT22;12319;49.204;8.116;2023-09-30T05:01:39;17.10;91.20
24164;DHT22;12319;49.204;8.116;2023-09-30T05:04:04;17.00;91.30
24164;DHT22;12319;49.204;8.116;2023-09-30T05:06:30;17.00;91.40
24164;DHT22;12319;49.204;8.116;2023-09-30T05:08:58;16.90;91.40
24164;DHT22;12319;49.204;8.116;2023-09-30T05:11:24;16.90;91.40
24164;DHT22;12319;49.204;8.116;2023-09-30T05:13:50;16.80;91.50
24164;DHT22;12319;49.204;8.116;2023-09-30T05:16:16;16.80;91.60
24164;DHT22;12319;49.204;8.116;2023-09-30T05:18:42;16.70;91.60
24164;DHT22;12319;49.204;8.116;2023-09-30T05:21:08;16.70;91.70
24164;DHT22;12319;49.204;8.116;2023-09-30T05:23:34;16.70;91.80
24164;DHT22;12319;49.204;8.116;2023-09-30T05:25:59;16.60;91.90
24164;DHT22;12319;49.204;8.116;2023-09-30T05:28:26;16.70;92.00
24164;DHT22;12319;49.204;8.116;2023-09-30T05:30:52;16.60;92.00
24164;DHT22;12319;49.204;8.116;2023-09-30T05:33:18;16.60;92.10
24164;DHT22;12319;49.204;8.116;2023-09-30T05:35:44;16.60;92.00
24164;DHT22;12319;49.204;8.116;2023-09-30T05:38:10;16.60;92.20
24164;DHT22;12319;49.204;8.116;2023-09-30T05:50:57;16.60;92.70
24164;DHT22;12319;49.204;8.116;2023-09-30T05:53:23;16.60;92.60
24164;DHT22;12319;49.204;8.116;2023-09-30T05:55:50;16.60;92.60
24164;DHT22;12319;49.204;8.116;2023-09-30T05:58:16;16.60;92.60
24164;DHT22;12319;49.204;8.116;2023-09-30T06:00:42;17.00;92.80
24164;DHT22;12319;49.204;8.116;2023-09-30T06:03:09;16.70;92.60
24164;DHT22;12319;49.204;8.116;2023-09-30T06:05:39;16.70;92.70
24164;DHT22;12319;49.204;8.116;2023-09-30T06:08:05;16.80;92.80
24164;DHT22;12319;49.204;8.116;2023-09-30T06:10:37;16.80;92.70
24164;DHT22;12319;49.204;8.116;2023-09-30T06:13:08;16.90;92.70
24164;DHT22;12319;49.204;8.116;2023-09-30T06:15:39;16.90;92.60
24164;DHT22;12319;49.204;8.116;2023-09-30T06:18:06;17.00;92.60
24164;DHT22;12319;49.204;8.116;2023-09-30T06:20:31;17.10;92.50
24164;DHT22;12319;49.204;8.116;2023-09-30T06:22:58;17.20;92.50
24164;DHT22;12319;49.204;8.116;2023-09-30T06:25:25;17.30;92.40
24164;DHT22;12319;49.204;8.116;2023-09-30T06:27:53;17.50;92.30
24164;DHT22;12319;49.204;8.116;2023-09-30T06:30:19;17.60;92.10
24164;DHT22;12319;49.204;8.116;2023-09-30T06:32:46;17.70;92.00
24164;DHT22;12319;49.204;8.116;2023-09-30T06:35:12;17.70;92.10
24164;DHT22;12319;49.204;8.116;2023-09-30T06:37:39;17.80;91.80
24164;DHT22;12319;49.204;8.116;2023-09-30T06:40:09;17.80;91.70
24164;DHT22;12319;49.204;8.116;2023-09-30T06:42:36;17.90;91.70
24164;DHT22;12319;49.204;8.116;2023-09-30T06:45:03;18.00;91.60
24164;DHT22;12319;49.204;8.116;2023-09-30T06:47:32;18.00;91.40
24164;DHT22;12319;49.204;8.116;2023-09-30T06:50:08;18.10;91.40
24164;DHT22;12319;49.204;8.116;2023-09-30T06:52:38;18.20;91.40
24164;DHT22;12319;49.204;8.116;2023-09-30T06:55:05;18.20;91.40
24164;DHT22;12319;49.204;8.116;2023-09-30T06:57:35;18.30;91.20
24164;DHT22;12319;49.204;8.116;2023-09-30T07:00:08;18.50;91.30
24164;DHT22;12319;49.204;8.116;2023-09-30T07:02:35;18.50;91.00
24164;DHT22;12319;49.204;8.116;2023-09-30T07:05:08;18.60;90.90
24164;DHT22;12319;49.204;8.116;2023-09-30T07:07:34;18.80;90.70
24164;DHT22;12319;49.204;8.116;2023-09-30T07:09:59;18.90;90.60
24164;DHT22;12319;49.204;8.116;2023-09-30T07:12:25;18.90;90.50
24164;DHT22;12319;49.204;8.116;2023-09-30T07:14:50;19.10;90.40
24164;DHT22;12319;49.204;8.116;2023-09-30T07:17:16;19.10;90.30
24164;DHT22;12319;49.204;8.116;2023-09-30T07:19:41;19.30;90.20
24164;DHT22;12319;49.204;8.116;2023-09-30T07:22:07;19.60;90.00
24164;DHT22;12319;49.204;8.116;2023-09-30T07:24:33;19.70;89.60
24164;DHT22;12319;49.204;8.116;2023-09-30T07:26:59;19.90;88.80
24164;DHT22;12319;49.204;8.116;2023-09-30T07:29:25;20.10;88.20
24164;DHT22;12319;49.204;8.116;2023-09-30T07:31:50;20.30;88.40
24164;DHT22;12319;49.204;8.116;2023-09-30T07:34:16;20.70;87.70
24164;DHT22;12319;49.204;8.116;2023-09-30T07:36:42;21.60;87.60
24164;DHT22;12319;49.204;8.116;2023-09-30T07:39:08;22.60;85.70
24164;DHT22;12319;49.204;8.116;2023-09-30T07:41:36;23.60;83.70
24164;DHT22;12319;49.204;8.116;2023-09-30T07:44:02;24.70;80.10
24164;DHT22;12319;49.204;8.116;2023-09-30T07:46:28;25.70;78.40
24164;DHT22;12319;49.204;8.116;2023-09-30T07:48:53;26.50;75.80
24164;DHT22;12319;49.204;8.116;2023-09-30T07:51:20;27.40;74.00
24164;DHT22;12319;49.204;8.116;2023-09-30T07:53:46;28.20;71.20
24164;DHT22;12319;49.204;8.116;2023-09-30T07:56:12;28.80;68.70
24164;DHT22;12319;49.204;8.116;2023-09-30T07:58:38;29.40;66.00
24164;DHT22;12319;49.204;8.116;2023-09-30T08:01:04;29.90;62.00
24164;DHT22;12319;49.204;8.116;2023-09-30T08:03:29;30.40;62.80
24164;DHT22;12319;49.204;8.116;2023-09-30T08:05:55;30.70;61.90
24164;DHT22;12319;49.204;8.116;2023-09-30T08:08:21;31.20;60.90
24164;DHT22;12319;49.204;8.116;2023-09-30T08:10:49;31.50;59.60
24164;DHT22;12319;49.204;8.116;2023-09-30T08:13:15;31.80;57.80
24164;DHT22;12319;49.204;8.116;2023-09-30T08:15:42;32.10;58.00
24164;DHT22;12319;49.204;8.116;2023-09-30T08:18:08;32.30;57.20
24164;DHT22;12319;49.204;8.116;2023-09-30T08:20:34;32.60;56.20
24164;DHT22;12319;49.204;8.116;2023-09-30T08:22:59;32.80;55.20
24164;DHT22;12319;49.204;8.116;2023-09-30T08:25:25;33.00;55.10
24164;DHT22;12319;49.204;8.116;2023-09-30T08:27:51;33.10;54.80
24164;DHT22;12319;49.204;8.116;2023-09-30T08:30:17;33.30;53.80
24164;DHT22;12319;49.204;8.116;2023-09-30T08:32:43;33.50;53.40
24164;DHT22;12319;49.204;8.116;2023-09-30T08:35:09;33.80;52.90
24164;DHT22;12319;49.204;8.116;2023-09-30T08:37:35;33.90;51.80
24164;DHT22;12319;49.204;8.116;2023-09-30T08:40:00;34.20;52.50
24164;DHT22;12319;49.204;8.116;2023-09-30T08:42:27;34.50;51.50
24164;DHT22;12319;49.204;8.116;2023-09-30T08:44:58;34.60;49.50
24164;DHT22;12319;49.204;8.116;2023-09-30T08:47:26;34.80;50.70
24164;DHT22;12319;49.204;8.116;2023-09-30T08:49:54;34.90;49.30
24164;DHT22;12319;49.204;8.116;2023-09-30T08:52:23;35.00;49.40
24164;DHT22;12319;49.204;8.116;2023-09-30T08:54:50;35.10;48.80
24164;DHT22;12319;49.204;8.116;2023-09-30T08:57:18;35.10;48.90
24164;DHT22;12319;49.204;8.116;2023-09-30T08:59:45;35.10;47.80
24164;DHT22;12319;49.204;8.116;2023-09-30T09:02:11;35.20;47.80
24164;DHT22;12319;49.204;8.116;2023-09-30T09:04:37;35.20;47.30
24164;DHT22;12319;49.204;8.116;2023-09-30T09:07:03;35.10;47.60
24164;DHT22;12319;49.204;8.116;2023-09-30T09:09:28;34.90;47.20
24164;DHT22;12319;49.204;8.116;2023-09-30T09:11:57;34.70;46.50
24164;DHT22;12319;49.204;8.116;2023-09-30T09:14:37;34.50;46.70
24164;DHT22;12319;49.204;8.116;2023-09-30T09:17:04;34.20;44.00
24164;DHT22;12319;49.204;8.116;2023-09-30T09:19:30;33.80;45.00
24164;DHT22;12319;49.204;8.116;2023-09-30T09:22:02;33.30;45.30
24164;DHT22;12319;49.204;8.116;2023-09-30T09:24:32;33.00;44.20
24164;DHT22;12319;49.204;8.116;2023-09-30T09:27:05;32.60;45.50
24164;DHT22;12319;49.204;8.116;2023-09-30T09:29:32;32.20;45.10
24164;DHT22;12319;49.204;8.116;2023-09-30T09:32:15;31.70;45.70
24164;DHT22;12319;49.204;8.116;2023-09-30T09:34:45;30.70;46.40
24164;DHT22;12319;49.204;8.116;2023-09-30T09:37:24;30.00;47.00
24164;DHT22;12319;49.204;8.116;2023-09-30T09:39:54;29.20;48.00
24164;DHT22;12319;49.204;8.116;2023-09-30T09:42:39;28.60;48.80
24164;DHT22;12319;49.204;8.116;2023-09-30T09:45:05;28.10;48.80
24164;DHT22;12319;49.204;8.116;2023-09-30T09:47:34;27.70;49.60
24164;DHT22;12319;49.204;8.116;2023-09-30T09:50:03;27.40;50.20
24164;DHT22;12319;49.204;8.116;2023-09-30T09:52:29;27.00;50.60
24164;DHT22;12319;49.204;8.116;2023-09-30T09:54:55;26.70;50.90
24164;DHT22;12319;49.204;8.116;2023-09-30T09:57:23;26.50;51.20
24164;DHT22;12319;49.204;8.116;2023-09-30T09:59:51;26.20;51.70
24164;DHT22;12319;49.204;8.116;2023-09-30T10:02:19;26.00;52.00
24164;DHT22;12319;49.204;8.116;2023-09-30T10:04:46;25.90;52.30
24164;DHT22;12319;49.204;8.116;2023-09-30T10:07:18;25.90;52.70
24164;DHT22;12319;49.204;8.116;2023-09-30T10:09:47;25.70;53.50
24164;DHT22;12319;49.204;8.116;2023-09-30T10:12:14;25.70;53.20
24164;DHT22;12319;49.204;8.116;2023-09-30T10:14:40;25.70;53.50
24164;DHT22;12319;49.204;8.116;2023-09-30T10:17:06;25.60;53.40
24164;DHT22;12319;49.204;8.116;2023-09-30T10:19:31;25.70;53.50
24164;DHT22;12319;49.204;8.116;2023-09-30T10:24:42;25.70;53.50
24164;DHT22;12319;49.204;8.116;2023-09-30T10:29:57;25.70;53.50
24164;DHT22;12319;49.204;8.116;2023-09-30T10:35:17;25.60;53.60
24164;DHT22;12319;49.204;8.116;2023-09-30T10:37:43;25.50;53.80
24164;DHT22;12319;49.204;8.116;2023-09-30T10:40:10;25.50;54.00
24164;DHT22;12319;49.204;8.116;2023-09-30T10:42:51;25.40;53.80
24164;DHT22;12319;49.204;8.116;2023-09-30T10:50:55;25.20;54.60
24164;DHT22;12319;49.204;8.116;2023-09-30T10:53:22;25.10;54.50
24164;DHT22;12319;49.204;8.116;2023-09-30T10:55:54;25.00;54.60
24164;DHT22;12319;49.204;8.116;2023-09-30T10:58:21;24.90;54.90
24164;DHT22;12319;49.204;8.116;2023-09-30T11:00:53;24.80;55.10
24164;DHT22;12319;49.204;8.116;2023-09-30T11:03:22;24.70;54.90
24164;DHT22;12319;49.204;8.116;2023-09-30T11:05:49;24.70;55.20
24164;DHT22;12319;49.204;8.116;2023-09-30T11:08:17;24.70;55.30
24164;DHT22;12319;49.204;8.116;2023-09-30T11:10:48;24.70;55.20
24164;DHT22;12319;49.204;8.116;2023-09-30T11:13:14;24.70;55.10
24164;DHT22;12319;49.204;8.116;2023-09-30T11:15:40;24.70;55.30
24164;DHT22;12319;49.204;8.116;2023-09-30T11:18:16;24.80;55.30
24164;DHT22;12319;49.204;8.116;2023-09-30T11:20:42;24.80;55.30
24164;DHT22;12319;49.204;8.116;2023-09-30T11:23:08;25.00;55.30
24164;DHT22;12319;49.204;8.116;2023-09-30T11:25:38;25.10;55.30
24164;DHT22;12319;49.204;8.116;2023-09-30T11:28:14;25.20;55.20
24164;DHT22;12319;49.204;8.116;2023-09-30T11:30:57;25.20;54.90
24164;DHT22;12319;49.204;8.116;2023-09-30T11:33:23;25.30;55.10
24164;DHT22;12319;49.204;8.116;2023-09-30T11:36:01;25.40;54.90
24164;DHT22;12319;49.204;8.116;2023-09-30T11:38:31;25.40;54.70
24164;DHT22;12319;49.204;8.116;2023-09-30T11:41:05;25.50;55.10
24164;DHT22;12319;49.204;8.116;2023-09-30T11:43:34;25.40;55.10
24164;DHT22;12319;49.204;8.116;2023-09-30T11:46:11;25.30;54.90
24164;DHT22;12319;49.204;8.116;2023-09-30T11:49:01;25.60;55.10
24164;DHT22;12319;49.204;8.116;2023-09-30T11:51:27;25.10;55.00
24164;DHT22;12319;49.204;8.116;2023-09-30T11:53:54;25.00;54.70
24164;DHT22;12319;49.204;8.116;2023-09-30T11:56:20;24.90;54.90
24164;DHT22;12319;49.204;8.116;2023-09-30T11:58:47;24.80;55.20
24164;DHT22;12319;49.204;8.116;2023-09-30T12:01:14;24.70;55.50
24164;DHT22;12319;49.204;8.116;2023-09-30T12:03:40;24.60;55.30
24164;DHT22;12319;49.204;8.116;2023-09-30T12:06:06;24.60;55.70
24164;DHT22;12319;49.204;8.116;2023-09-30T12:08:32;24.60;56.00
24164;DHT22;12319;49.204;8.116;2023-09-30T12:10:57;24.60;56.20
24164;DHT22;12319;49.204;8.116;2023-09-30T12:13:25;25.10;56.90
24164;DHT22;12319;49.204;8.116;2023-09-30T12:15:51;24.70;56.50
24164;DHT22;12319;49.204;8.116;2023-09-30T12:18:18;24.80;56.60
24164;DHT22;12319;49.204;8.116;2023-09-30T12:20:49;25.10;56.40
24164;DHT22;12319;49.204;8.116;2023-09-30T12:23:15;25.20;55.90
24164;DHT22;12319;49.204;8.116;2023-09-30T12:25:41;25.20;55.90
24164;DHT22;12319;49.204;8.116;2023-09-30T12:28:07;25.20;56.10
24164;DHT22;12319;49.204;8.116;2023-09-30T12:30:32;25.10;55.90
24164;DHT22;12319;49.204;8.116;2023-09-30T12:32:58;25.40;54.90
24164;DHT22;12319;49.204;8.116;2023-09-30T12:35:24;25.40;55.80
24164;DHT22;12319;49.204;8.116;2023-09-30T12:37:50;25.50;55.60
24164;DHT22;12319;49.204;8.116;2023-09-30T12:40:16;25.40;55.80
24164;DHT22;12319;49.204;8.116;2023-09-30T12:42:43;25.40;55.60
24164;DHT22;12319;49.204;8.116;2023-09-30T12:45:10;25.30;55.50
24164;DHT22;12319;49.204;8.116;2023-09-30T12:47:36;25.20;55.80
24164;DHT22;12319;49.204;8.116;2023-09-30T12:50:02;25.20;55.40
24164;DHT22;12319;49.204;8.116;2023-09-30T12:52:28;25.20;55.60
24164;DHT22;12319;49.204;8.116;2023-09-30T12:54:55;25.30;55.50
24164;DHT22;12319;49.204;8.116;2023-09-30T12:57:21;25.50;55.60
24164;DHT22;12319;49.204;8.116;2023-09-30T12:59:47;25.40;55.30
24164;DHT22;12319;49.204;8.116;2023-09-30T13:02:15;25.40;55.20
24164;DHT22;12319;49.204;8.116;2023-09-30T13:04:40;25.20;55.20
24164;DHT22;12319;49.204;8.116;2023-09-30T13:07:11;25.10;55.30
24164;DHT22;12319;49.204;8.116;2023-09-30T13:09:41;25.20;55.60
24164;DHT22;12319;49.204;8.116;2023-09-30T13:12:07;25.40;55.60
24164;DHT22;12319;49.204;8.116;2023-09-30T13:14:34;25.70;55.00
24164;DHT22;12319;49.204;8.116;2023-09-30T13:17:00;25.90;54.60
24164;DHT22;12319;49.204;8.116;2023-09-30T13:19:26;26.10;54.40
24164;DHT22;12319;49.204;8.116;2023-09-30T13:21:52;26.40;54.00
24164;DHT22;12319;49.204;8.116;2023-09-30T13:24:24;26.50;53.50
24164;DHT22;12319;49.204;8.116;2023-09-30T13:26:50;26.60;52.70
24164;DHT22;12319;49.204;8.116;2023-09-30T13:29:18;26.50;52.50
24164;DHT22;12319;49.204;8.116;2023-09-30T13:31:44;26.50;52.50
24164;DHT22;12319;49.204;8.116;2023-09-30T13:34:10;26.80;53.00
24164;DHT22;12319;49.204;8.116;2023-09-30T13:36:38;26.50;53.20
24164;DHT22;12319;49.204;8.116;2023-09-30T13:39:03;26.50;53.20
24164;DHT22;12319;49.204;8.116;2023-09-30T13:41:34;26.60;53.30
24164;DHT22;12319;49.204;8.116;2023-09-30T13:44:00;26.60;53.20
24164;DHT22;12319;49.204;8.116;2023-09-30T13:46:25;26.50;53.10
24164;DHT22;12319;49.204;8.116;2023-09-30T13:48:53;26.50;53.10
24164;DHT22;12319;49.204;8.116;2023-09-30T13:51:19;26.40;53.00
24164;DHT22;12319;49.204;8.116;2023-09-30T13:53:44;26.40;53.20
24164;DHT22;12319;49.204;8.116;2023-09-30T13:56:10;26.20;53.10
24164;DHT22;12319;49.204;8.116;2023-09-30T13:58:36;26.20;53.40
24164;DHT22;12319;49.204;8.116;2023-09-30T14:01:02;25.90;53.30
24164;DHT22;12319;49.204;8.116;2023-09-30T14:03:28;25.80;53.60
24164;DHT22;12319;49.204;8.116;2023-09-30T14:05:54;25.70;53.50
24164;DHT22;12319;49.204;8.116;2023-09-30T14:08:19;25.40;53.90
24164;DHT22;12319;49.204;8.116;2023-09-30T14:10:45;25.40;54.30
24164;DHT22;12319;49.204;8.116;2023-09-30T14:13:10;25.10;54.40
24164;DHT22;12319;49.204;8.116;2023-09-30T14:15:36;24.90;54.50
24164;DHT22;12319;49.204;8.116;2023-09-30T14:18:03;24.90;54.80
24164;DHT22;12319;49.204;8.116;2023-09-30T14:20:29;24.80;55.00
24164;DHT22;12319;49.204;8.116;2023-09-30T14:22:55;24.70;55.40
24164;DHT22;12319;49.204;8.116;2023-09-30T14:25:21;24.70;55.10
24164;DHT22;12319;49.204;8.116;2023-09-30T14:27:48;24.50;55.20
24164;DHT22;12319;49.204;8.116;2023-09-30T14:30:13;24.40;55.50
24164;DHT22;12319;49.204;8.116;2023-09-30T14:32:39;24.30;55.50
24164;DHT22;12319;49.204;8.116;2023-09-30T14:35:06;24.20;55.60
24164;DHT22;12319;49.204;8.116;2023-09-30T14:37:32;24.10;55.60
24164;DHT22;12319;49.204;8.116;2023-09-30T14:39:57;24.00;55.80
24164;DHT22;12319;49.204;8.116;2023-09-30T14:42:23;24.00;56.00
24164;DHT22;12319;49.204;8.116;2023-09-30T14:44:49;23.90;55.80
24164;DHT22;12319;49.204;8.116;2023-09-30T14:47:14;23.90;56.00
24164;DHT22;12319;49.204;8.116;2023-09-30T14:49:40;23.90;56.30
24164;DHT22;12319;49.204;8.116;2023-09-30T14:52:06;23.80;56.30
24164;DHT22;12319;49.204;8.116;2023-09-30T14:54:32;23.80;56.40
24164;DHT22;12319;49.204;8.116;2023-09-30T14:56:57;23.80;56.30
24164;DHT22;12319;49.204;8.116;2023-09-30T14:59:23;23.80;56.40
24164;DHT22;12319;49.204;8.116;2023-09-30T15:01:49;23.80;56.40
24164;DHT22;12319;49.204;8.116;2023-09-30T15:04:15;23.80;56.30
24164;DHT22;12319;49.204;8.116;2023-09-30T15:06:41;23.70;56.20
24164;DHT22;12319;49.204;8.116;2023-09-30T15:09:07;23.80;56.40
24164;DHT22;12319;49.204;8.116;2023-09-30T15:11:37;23.70;56.50
24164;DHT22;12319;49.204;8.116;2023-09-30T15:14:03;23.80;56.50
24164;DHT22;12319;49.204;8.116;2023-09-30T15:16:30;23.70;56.50
24164;DHT22;12319;49.204;8.116;2023-09-30T15:18:56;23.70;56.80
24164;DHT22;12319;49.204;8.116;2023-09-30T15:21:22;23.60;56.80
24164;DHT22;12319;49.204;8.116;2023-09-30T15:23:48;23.70;56.80
24164;DHT22;12319;49.204;8.116;2023-09-30T15:26:14;23.60;56.60
24164;DHT22;12319;49.204;8.116;2023-09-30T15:28:41;23.70;56.80
24164;DHT22;12319;49.204;8.116;2023-09-30T15:31:07;23.60;56.70
24164;DHT22;12319;49.204;8.116;2023-09-30T15:33:33;23.60;56.70
24164;DHT22;12319;49.204;8.116;2023-09-30T15:35:59;23.50;56.70
24164;DHT22;12319;49.204;8.116;2023-09-30T15:38:25;23.50;56.80
24164;DHT22;12319;49.204;8.116;2023-09-30T15:40:54;23.50;56.80
24164;DHT22;12319;49.204;8.116;2023-09-30T15:43:23;23.50;56.70
24164;DHT22;12319;49.204;8.116;2023-09-30T15:45:49;23.40;56.60
24164;DHT22;12319;49.204;8.116;2023-09-30T15:48:15;23.40;56.50
24164;DHT22;12319;49.204;8.116;2023-09-30T15:50:42;23.30;56.60
24164;DHT22;12319;49.204;8.116;2023-09-30T15:53:07;23.20;56.80